Time;durP1;ratioP1;P1;durP2;ratioP2;P2;SDS_P1;SDS_P2;PMS_P1;PMS_P2;Temp;Humidity;BMP_temperature;BMP_pressure;BME280_temperature;BME280_humidity;BME280_pressure;Samples;Min_cycle;Max_cycle;Signal;HPM_P1;HPM_P2
2022/07/07 00:04:03;;;;;;;11.32;7.07;;;;;;;14.35;74.74;100777.25;10410129;28;20049;-77
2022/07/07 00:09:06;;;;;;;9.88;6.85;;;;;;;14.45;73.80;100761.06;10403622;28;20187;-77
2022/07/07 00:14:10;;;;;;;11.00;6.63;;;;;;;14.64;73.36;100749.41;10393840;28;20052;-77
2022/07/07 00:19:14;;;;;;;8.60;6.80;;;;;;;14.69;73.51;100749.00;10412367;28;20127;-76
2022/07/07 00:24:17;;;;;;;13.18;6.85;;;;;;;14.56;73.79;100736.63;10396787;28;20367;-77
2022/07/07 00:29:21;;;;;;;14.02;7.40;;;;;;;14.64;74.74;100735.88;10387113;28;20052;-76
2022/07/07 00:34:24;;;;;;;8.32;6.20;;;;;;;14.62;74.81;100734.31;10399362;28;20049;-77
2022/07/07 00:39:27;;;;;;;16.10;6.57;;;;;;;14.64;74.94;100722.38;10402075;28;20053;-77
2022/07/07 00:44:31;;;;;;;12.05;6.97;;;;;;;14.53;75.00;100717.97;10375452;28;20588;-78
2022/07/07 00:49:35;;;;;;;11.75;6.45;;;;;;;14.57;74.00;100707.75;10384098;28;20049;-78
2022/07/07 00:54:38;;;;;;;8.95;6.43;;;;;;;14.76;73.56;100698.75;10401480;28;20103;-77
2022/07/07 00:59:42;;;;;;;11.30;5.82;;;;;;;14.88;72.33;100692.19;10413329;28;20057;-77
2022/07/07 01:04:45;;;;;;;9.75;5.72;;;;;;;14.90;71.64;100690.19;10418778;28;20098;-77
2022/07/07 01:09:48;;;;;;;6.45;4.53;;;;;;;14.55;72.77;100696.22;10401307;28;20142;-77
2022/07/07 01:14:53;;;;;;;9.60;6.47;;;;;;;14.16;76.32;100694.31;10393706;28;21581;-78
2022/07/07 01:19:56;;;;;;;11.43;7.28;;;;;;;14.14;77.67;100680.06;10391536;28;20095;-78
2022/07/07 01:25:00;;;;;;;12.90;6.85;;;;;;;14.02;78.41;100666.84;10392937;28;20045;-77
2022/07/07 01:30:04;;;;;;;16.98;8.50;;;;;;;13.95;79.14;100653.03;10397591;28;20049;-78
2022/07/07 01:35:08;;;;;;;12.05;8.35;;;;;;;14.13;78.90;100654.06;10397215;28;20079;-78
2022/07/07 01:40:13;;;;;;;11.55;8.30;;;;;;;14.23;78.64;100653.22;10391707;28;20050;-78
2022/07/07 01:45:16;;;;;;;12.23;8.70;;;;;;;14.14;78.69;100641.41;10394125;28;20053;-79
2022/07/07 01:50:19;;;;;;;14.05;10.00;;;;;;;14.07;79.28;100627.63;10404259;28;20188;-79
2022/07/07 01:55:23;;;;;;;10.27;8.45;;;;;;;13.98;79.82;100627.59;10388720;28;20159;-79
2022/07/07 02:00:26;;;;;;;9.75;7.80;;;;;;;13.89;80.24;100619.34;10396015;28;20052;-79
2022/07/07 02:05:29;;;;;;;15.73;9.75;;;;;;;13.93;80.89;100603.72;10400923;28;20095;-78
2022/07/07 02:15:53;;;;;;;13.30;10.27;;;;;;;14.22;79.94;100598.31;10413976;28;20042;-79
2022/07/07 02:20:56;;;;;;;14.25;11.32;;;;;;;14.27;80.27;100604.16;10384821;28;20160;-79
2022/07/07 02:26:00;;;;;;;15.00;10.68;;;;;;;14.22;80.61;100602.88;10415875;28;20057;-79
2022/07/07 02:31:03;;;;;;;13.20;10.57;;;;;;;14.25;80.42;100591.78;10415563;28;21207;-79
2022/07/07 02:36:07;;;;;;;16.13;12.00;;;;;;;14.15;81.19;100592.66;10413088;28;20049;-78
2022/07/07 02:41:12;;;;;;;16.00;12.27;;;;;;;14.43;80.60;100581.16;10393874;28;20119;-79
2022/07/07 02:46:14;;;;;;;11.75;8.73;;;;;;;14.35;80.66;100573.72;10406280;28;20049;-79
2022/07/07 02:51:18;;;;;;;16.50;13.93;;;;;;;14.22;81.51;100574.00;10413982;28;20418;-81
2022/07/07 02:56:22;;;;;;;20.08;14.75;;;;;;;14.44;80.87;100555.81;10389352;28;20049;-78
2022/07/07 03:01:25;;;;;;;20.80;15.05;;;;;;;14.42;81.18;100555.94;10405234;28;20060;-78
2022/07/07 03:06:27;;;;;;;19.90;14.10;;;;;;;14.57;80.52;100543.69;10382459;28;20045;-78
2022/07/07 03:11:32;;;;;;;19.48;13.75;;;;;;;14.54;81.06;100541.28;10382154;28;20084;-79
2022/07/07 03:16:35;;;;;;;13.70;11.40;;;;;;;14.19;82.07;100535.63;10381817;28;20191;-78
2022/07/07 03:21:38;;;;;;;15.45;11.65;;;;;;;14.52;81.32;100535.16;10382065;28;20119;-78
2022/07/07 03:26:42;;;;;;;17.63;12.50;;;;;;;14.59;81.01;100528.19;10398870;28;20045;-79
2022/07/07 03:31:45;;;;;;;12.07;10.35;;;;;;;14.39;82.14;100534.63;10384332;28;20037;-79
2022/07/07 03:36:48;;;;;;;15.75;11.00;;;;;;;14.42;82.15;100520.81;10399346;28;20057;-79
2022/07/07 03:41:53;;;;;;;18.70;12.68;;;;;;;14.53;82.18;100519.78;10412261;28;20053;-80
2022/07/07 03:46:56;;;;;;;17.15;12.60;;;;;;;14.44;82.14;100507.16;10437327;28;20128;-79
2022/07/07 03:51:59;;;;;;;22.80;13.38;;;;;;;14.49;82.30;100511.13;10416961;28;20067;-80
2022/07/07 03:57:03;;;;;;;22.45;13.15;;;;;;;14.40;82.77;100503.91;10382629;28;20049;-80
2022/07/07 04:02:06;;;;;;;18.45;13.38;;;;;;;14.18;84.60;100502.38;10378252;28;20136;-80
2022/07/07 04:07:09;;;;;;;19.02;13.43;;;;;;;14.14;84.21;100500.94;10394884;28;20059;-80
2022/07/07 04:12:14;;;;;;;23.20;15.18;;;;;;;14.28;84.31;100486.97;10411183;28;20172;-79
2022/07/07 04:17:17;;;;;;;18.55;13.80;;;;;;;14.24;84.41;100484.72;10403624;28;20059;-79
2022/07/07 04:22:19;;;;;;;21.25;15.10;;;;;;;14.33;84.66;100487.38;10404329;28;20053;-79
2022/07/07 04:27:24;;;;;;;24.15;15.48;;;;;;;14.31;84.73;100488.53;10389367;28;20060;-80
2022/07/07 04:32:27;;;;;;;21.27;15.75;;;;;;;14.31;85.09;100488.53;10396723;28;20545;-79
2022/07/07 04:37:30;;;;;;;24.33;14.13;;;;;;;14.36;84.86;100470.88;10399047;28;20052;-79
2022/07/07 04:42:34;;;;;;;28.75;16.90;;;;;;;14.19;86.02;100470.78;10385130;28;20239;-79
2022/07/07 04:47:40;;;;;;;23.08;16.58;;;;;;;14.11;86.59;100455.31;10391754;28;20063;-77
2022/07/07 04:52:43;;;;;;;27.85;20.45;;;;;;;14.30;86.71;100454.41;10384316;28;20413;-79
2022/07/07 04:57:47;;;;;;;27.73;19.85;;;;;;;14.10;87.00;100446.34;10380148;28;20057;-78
2022/07/07 05:02:50;;;;;;;31.02;20.13;;;;;;;14.37;86.83;100455.50;10374151;28;20073;-78
2022/07/07 05:07:52;;;;;;;28.27;17.83;;;;;;;14.46;86.37;100448.41;10375372;28;20119;-78
2022/07/07 05:12:57;;;;;;;28.15;19.83;;;;;;;14.36;86.66;100449.25;10407373;28;20122;-80
2022/07/07 05:17:59;;;;;;;28.70;21.05;;;;;;;14.60;85.96;100447.94;10419817;28;21366;-80
2022/07/07 05:23:02;;;;;;;30.52;20.83;;;;;;;13.98;87.83;100462.88;10380182;28;20045;-79
2022/07/07 05:28:07;;;;;;;33.92;21.73;;;;;;;14.23;88.32;100448.72;10414458;28;20099;-80
2022/07/07 05:33:10;;;;;;;33.35;22.13;;;;;;;14.16;89.13;100455.72;10401086;28;20470;-80
2022/07/07 05:38:13;;;;;;;28.73;19.15;;;;;;;14.24;89.01;100461.25;10393523;28;20050;-78
2022/07/07 05:43:17;;;;;;;29.45;20.05;;;;;;;14.10;90.31;100465.28;10420612;28;20087;-78
2022/07/07 05:48:20;;;;;;;19.80;14.27;;;;;;;14.05;91.20;100472.94;10418159;28;20079;-77
2022/07/07 05:53:23;;;;;;;16.52;14.25;;;;;;;14.02;91.24;100470.53;10413574;28;20040;-78
2022/07/07 05:58:28;;;;;;;16.80;13.00;;;;;;;14.09;92.13;100474.34;10419504;28;20077;-77
2022/07/07 06:03:31;;;;;;;19.92;14.88;;;;;;;14.50;91.21;100487.66;10402037;28;20069;-77
2022/07/07 06:08:35;;;;;;;17.58;13.48;;;;;;;14.27;90.77;100482.56;10404510;28;20063;-78
2022/07/07 06:13:40;;;;;;;16.35;11.95;;;;;;;14.63;90.20;100484.63;10386389;28;21119;-77
2022/07/07 06:18:42;;;;;;;13.00;7.65;;;;;;;14.50;89.14;100496.59;10394720;28;20533;-77
2022/07/07 06:23:45;;;;;;;12.73;8.15;;;;;;;14.67;89.72;100492.28;10405607;28;20610;-77
2022/07/07 06:28:49;;;;;;;5.75;4.93;;;;;;;14.55;88.91;100497.03;10418117;28;20498;-77
2022/07/07 06:33:52;;;;;;;5.22;4.72;;;;;;;14.90;87.49;100490.06;10408097;28;20049;-77
2022/07/07 06:38:56;;;;;;;6.57;5.32;;;;;;;14.78;88.08;100484.00;10404431;28;20045;-77
2022/07/07 06:44:00;;;;;;;5.55;4.68;;;;;;;14.64;87.65;100483.63;10416634;28;20049;-76
2022/07/07 06:49:03;;;;;;;7.20;5.22;;;;;;;14.75;88.28;100486.13;10394619;28;20056;-76
2022/07/07 06:54:06;;;;;;;5.35;3.95;;;;;;;14.09;91.10;100478.91;10404987;28;20207;-77
2022/07/07 06:59:10;;;;;;;7.20;5.57;;;;;;;14.95;88.50;100490.47;10399596;28;20865;-77
2022/07/07 07:04:14;;;;;;;4.22;3.85;;;;;;;14.50;90.97;100493.91;10393487;28;20073;-77
2022/07/07 07:09:17;;;;;;;4.80;3.60;;;;;;;15.17;88.19;100502.72;10395514;28;20052;-76
2022/07/07 07:14:22;;;;;;;7.28;4.53;;;;;;;15.45;86.81;100494.59;10395805;28;20706;-77
2022/07/07 07:19:24;;;;;;;4.80;3.70;;;;;;;15.37;86.63;100498.06;10398993;28;20079;-77
2022/07/07 07:24:27;;;;;;;4.88;3.60;;;;;;;15.13;88.34;100509.44;10395532;28;20053;-77
2022/07/07 07:29:32;;;;;;;5.35;3.13;;;;;;;14.92;88.30;100508.81;10400343;28;20041;-76
2022/07/07 07:34:35;;;;;;;5.10;3.47;;;;;;;14.76;89.96;100513.03;10392930;28;21523;-77
2022/07/07 07:39:37;;;;;;;4.35;2.45;;;;;;;14.81;89.79;100528.81;10393890;28;20128;-77
2022/07/07 07:50:02;;;;;;;2.78;1.48;;;;;;;14.64;87.91;100543.94;10394225;28;20048;-77
2022/07/07 07:55:06;;;;;;;3.65;1.00;;;;;;;14.79;85.52;100550.59;10391491;28;20060;-77
2022/07/07 08:00:13;;;;;;;4.32;1.42;;;;;;;15.89;85.63;100557.81;10384409;28;20495;-77
2022/07/07 08:05:18;;;;;;;1.20;1.10;;;;;;;16.13;84.01;100557.19;10376835;28;20179;-76
2022/07/07 08:10:21;;;;;;;1.40;1.30;;;;;;;16.77;82.28;100555.13;10388736;28;20057;-77
2022/07/07 08:15:25;;;;;;;2.88;1.10;;;;;;;17.08;76.48;100560.03;10383002;28;20142;-77
2022/07/07 08:20:29;;;;;;;2.50;1.10;;;;;;;16.00;80.72;100564.88;10399183;28;20060;-78
2022/07/07 08:25:33;;;;;;;2.17;0.90;;;;;;;15.95;80.64;100569.88;10408457;28;20456;-78
2022/07/07 08:30:37;;;;;;;2.22;1.15;;;;;;;15.59;79.98;100583.41;10415366;28;21258;-77
2022/07/07 08:35:40;;;;;;;5.40;1.05;;;;;;;16.08;77.81;100589.31;10380157;28;20054;-78
2022/07/07 08:40:43;;;;;;;5.30;1.33;;;;;;;15.54;79.45;100604.66;10386567;28;20046;-78
2022/07/07 08:45:49;;;;;;;2.20;0.98;;;;;;;16.62;75.71;100597.44;10400915;28;21277;-78
2022/07/07 08:50:52;;;;;;;3.47;1.67;;;;;;;17.09;74.27;100604.34;10398017;28;20068;-76
2022/07/07 08:55:56;;;;;;;5.95;1.50;;;;;;;16.58;74.80;100623.16;10385734;28;20057;-79
2022/07/07 09:01:00;;;;;;;5.35;1.38;;;;;;;16.68;75.81;100633.91;10390679;28;20049;-77
2022/07/07 09:06:04;;;;;;;4.03;1.45;;;;;;;16.61;73.64;100640.97;10401070;28;20071;-77
2022/07/07 09:11:09;;;;;;;4.47;1.25;;;;;;;18.00;70.89;100653.44;10386008;28;20045;-78
2022/07/07 09:16:17;;;;;;;6.43;1.25;;;;;;;16.78;70.64;100657.22;10408580;28;20098;-77
2022/07/07 09:21:28;;;;;;;6.30;1.58;;;;;;;16.12;72.96;100666.56;10396276;28;20045;-77
2022/07/07 09:26:35;;;;;;;4.55;1.60;;;;;;;16.27;74.78;100676.94;10388780;28;20052;-78
2022/07/07 09:31:58;;;;;;;3.40;1.10;;;;;;;16.54;73.86;100678.72;10382176;28;20132;-77
2022/07/07 09:42:26;;;;;;;10.70;2.50;;;;;;;16.90;74.63;100701.22;10384897;28;20064;-78
2022/07/07 09:47:32;;;;;;;3.95;1.67;;;;;;;16.37;71.01;100710.22;10377412;28;20060;-77
2022/07/07 09:52:45;;;;;;;3.25;1.48;;;;;;;16.78;71.33;100716.03;10402692;28;20048;-78
2022/07/07 09:57:48;;;;;;;4.40;1.58;;;;;;;17.40;69.35;100707.84;10398106;28;20069;-78
2022/07/07 10:02:54;;;;;;;3.97;1.42;;;;;;;18.39;65.64;100726.25;10403256;28;20079;-76
2022/07/07 10:07:59;;;;;;;6.47;2.65;;;;;;;18.86;66.28;100722.06;10397491;28;20134;-79
2022/07/07 10:13:03;;;;;;;6.43;1.38;;;;;;;19.65;62.92;100731.31;10419647;28;20171;-78
2022/07/07 10:18:08;;;;;;;5.63;1.60;;;;;;;18.72;62.36;100735.28;10415780;28;20103;-78
2022/07/07 10:23:12;;;;;;;3.08;1.30;;;;;;;19.90;64.15;100743.81;10407146;28;20114;-79
2022/07/07 10:28:15;;;;;;;5.78;1.20;;;;;;;20.32;57.88;100739.91;10420165;28;20068;-80
2022/07/07 10:33:21;;;;;;;6.93;1.35;;;;;;;19.84;58.30;100754.59;10406010;28;20052;-79
2022/07/07 10:38:25;;;;;;;6.05;1.38;;;;;;;20.04;58.00;100747.66;10422969;28;20530;-79
2022/07/07 10:43:32;;;;;;;6.78;1.73;;;;;;;20.04;56.95;100753.13;10417201;28;20051;-79
2022/07/07 10:48:45;;;;;;;2.67;1.30;;;;;;;20.47;57.01;100756.34;10412646;28;20787;-79
2022/07/07 10:54:00;;;;;;;2.67;1.10;;;;;;;19.81;56.97;100763.13;10410318;28;20051;-80
2022/07/07 10:59:03;;;;;;;6.28;1.40;;;;;;;21.26;56.23;100757.97;10394195;28;20086;-80
2022/07/07 11:04:09;;;;;;;3.92;1.00;;;;;;;20.12;54.95;100766.72;10407982;28;20052;-79
2022/07/07 11:09:12;;;;;;;4.82;1.20;;;;;;;18.96;57.56;100769.03;10406168;28;21550;-79
2022/07/07 11:14:15;;;;;;;3.97;1.45;;;;;;;19.13;58.12;100776.16;10402272;28;20179;-79
2022/07/07 11:19:33;;;;;;;2.88;1.02;;;;;;;19.50;57.06;100787.50;10414541;28;20135;-79
2022/07/07 11:24:36;;;;;;;2.10;1.15;;;;;;;20.00;55.26;100783.66;10408798;28;21314;-80
2022/07/07 11:29:43;;;;;;;1.77;1.00;;;;;;;22.31;51.64;100782.41;10404470;28;20053;-80
2022/07/07 11:34:49;;;;;;;1.77;0.80;;;;;;;22.57;48.86;100779.13;10402175;28;20048;-78
2022/07/07 11:39:52;;;;;;;4.53;1.27;;;;;;;20.12;53.34;100790.41;10389176;28;20061;-79
2022/07/07 11:44:55;;;;;;;5.38;1.02;;;;;;;19.50;55.08;100799.28;10389253;28;20053;-80
2022/07/07 11:49:59;;;;;;;3.08;1.00;;;;;;;19.28;55.92;100794.50;10385883;28;20414;-78
2022/07/07 11:55:04;;;;;;;1.80;0.85;;;;;;;19.93;54.70;100820.84;10388457;28;20052;-79
2022/07/07 12:00:12;;;;;;;3.85;1.42;;;;;;;20.84;53.17;100809.28;10387475;28;20141;-80
2022/07/07 12:05:19;;;;;;;1.60;0.98;;;;;;;21.43;52.37;100806.78;10384562;28;20050;-80
2022/07/07 12:10:23;;;;;;;1.83;0.75;;;;;;;23.73;47.00;100801.69;10414768;28;20049;-80
2022/07/07 12:15:28;;;;;;;2.85;0.80;;;;;;;22.40;48.15;100802.28;10409878;28;20045;-78
2022/07/07 12:20:33;;;;;;;1.90;0.68;;;;;;;19.92;52.15;100817.25;10400559;28;20061;-78
2022/07/07 12:25:40;;;;;;;1.10;0.50;;;;;;;21.06;51.06;100818.53;10416267;28;20044;-79
2022/07/07 12:30:53;;;;;;;1.35;0.40;;;;;;;19.66;53.76;100829.25;10411371;28;20154;-79
2022/07/07 12:36:07;;;;;;;2.05;0.57;;;;;;;19.58;54.89;100840.16;10402013;28;20056;-81
2022/07/07 12:41:20;;;;;;;0.50;0.30;;;;;;;18.69;56.69;100843.63;10421118;28;20057;-79
2022/07/07 12:46:33;;;;;;;1.95;0.40;;;;;;;18.97;56.88;100860.53;10384256;28;20053;-80
2022/07/07 12:51:38;;;;;;;2.10;0.43;;;;;;;19.84;54.70;100853.56;10381877;28;20692;-80
2022/07/07 12:56:41;;;;;;;1.75;0.40;;;;;;;21.76;50.28;100855.69;10387380;28;20041;-79
2022/07/07 13:01:49;;;;;;;3.50;0.50;;;;;;;21.42;50.25;100862.50;10383642;28;20045;-80
2022/07/07 13:06:54;;;;;;;0.55;0.38;;;;;;;20.24;52.56;100867.25;10388904;28;20041;-79
2022/07/07 13:11:57;;;;;;;0.85;0.43;;;;;;;19.48;54.56;100868.59;10397571;28;20864;-81
2022/07/07 13:17:00;;;;;;;1.95;0.70;;;;;;;19.57;55.37;100879.31;10412569;28;20531;-80
2022/07/07 13:22:06;;;;;;;1.73;0.50;;;;;;;18.86;59.09;100904.41;10392819;28;20607;-78
2022/07/07 13:27:09;;;;;;;2.33;0.70;;;;;;;17.31;70.67;100924.16;10408047;28;20426;-79
2022/07/07 13:32:12;;;;;;;1.20;0.90;;;;;;;16.52;75.89;100943.75;10413202;28;20049;-80
2022/07/07 13:37:16;;;;;;;1.42;1.00;;;;;;;16.26;77.27;100933.56;10409876;28;20049;-80
2022/07/07 13:42:19;;;;;;;1.00;1.00;;;;;;;17.43;79.37;100941.91;10406223;28;20041;-79
2022/07/07 13:47:23;;;;;;;1.67;1.33;;;;;;;17.77;75.47;100938.47;10399225;28;20172;-79
2022/07/07 13:52:27;;;;;;;2.33;1.48;;;;;;;18.24;73.78;100935.41;10390177;28;20057;-79
2022/07/07 13:57:32;;;;;;;3.33;1.20;;;;;;;;;;10394266;28;20058;-79
2022/07/07 14:02:35;;;;;;;3.78;1.15;;;;;;;17.85;73.85;100954.84;10399579;28;20057;-79
2022/07/07 14:07:41;;;;;;;1.92;0.77;;;;;;;17.32;74.75;100977.44;10404081;28;20053;-81
2022/07/07 14:12:44;;;;;;;2.45;1.50;;;;;;;16.89;73.92;100980.81;10403974;28;20049;-79
2022/07/07 14:17:47;;;;;;;5.72;1.50;;;;;;;15.83;75.07;100999.97;10418237;28;20056;-79
2022/07/07 14:22:52;;;;;;;5.63;1.95;;;;;;;16.03;76.52;101010.78;10414591;28;20068;-79
2022/07/07 14:27:55;;;;;;;2.95;1.42;;;;;;;16.30;75.92;101031.75;10416517;28;20060;-80
2022/07/07 14:32:58;;;;;;;10.70;2.47;;;;;;;16.22;75.82;101027.00;10408087;28;20136;-79
2022/07/07 14:38:03;;;;;;;5.45;2.13;;;;;;;16.41;74.66;101036.16;10414104;28;20045;-81
2022/07/07 14:43:06;;;;;;;5.93;1.70;;;;;;;17.34;74.94;101029.75;10405612;28;20049;-79
2022/07/07 14:48:09;;;;;;;8.80;1.75;;;;;;;17.85;72.74;101038.22;10406133;28;20053;-79
2022/07/07 14:53:13;;;;;;;5.18;2.00;;;;;;;18.00;68.82;101044.00;10413289;28;21203;-78
2022/07/07 14:58:16;;;;;;;7.63;3.58;;;;;;;17.47;67.02;101051.09;10400346;28;20041;-80
2022/07/07 15:03:20;;;;;;;8.20;2.45;;;;;;;17.02;66.82;101049.19;10402369;28;20433;-78
2022/07/07 15:08:25;;;;;;;12.75;1.98;;;;;;;16.72;66.53;101053.88;10412770;28;20069;-80
2022/07/07 15:13:28;;;;;;;7.35;2.00;;;;;;;16.17;63.07;101069.09;10416357;28;20060;-82
2022/07/07 15:18:31;;;;;;;7.43;2.00;;;;;;;16.78;62.72;101075.00;10414476;28;20615;-79
2022/07/07 15:23:37;;;;;;;7.03;2.05;;;;;;;17.06;60.85;101082.28;10413591;28;20052;-78
2022/07/07 15:28:40;;;;;;;12.20;3.33;;;;;;;16.91;59.77;101073.78;10421700;28;20041;-80
2022/07/07 15:33:43;;;;;;;8.27;1.95;;;;;;;17.20;59.14;101095.44;10401650;28;21202;-78
2022/07/07 15:38:47;;;;;;;11.23;2.42;;;;;;;16.95;58.13;101095.06;10385511;28;20049;-79
2022/07/07 15:43:50;;;;;;;17.08;2.70;;;;;;;16.73;57.10;101092.69;10395684;28;20045;-79
2022/07/07 15:48:53;;;;;;;10.25;2.40;;;;;;;17.38;55.10;101101.72;10389453;28;20128;-80
2022/07/07 15:53:58;;;;;;;12.43;2.88;;;;;;;19.21;50.84;101094.78;10382384;28;20057;-78
2022/07/07 15:59:05;;;;;;;9.35;1.90;;;;;;;19.91;49.47;101101.81;10408905;28;20052;-79
2022/07/07 16:09:30;;;;;;;9.40;1.80;;;;;;;17.50;52.85;101129.56;10435127;28;20068;-79
2022/07/07 16:14:33;;;;;;;5.90;2.17;;;;;;;17.95;50.53;101127.84;10409641;28;20127;-78
2022/07/07 16:19:36;;;;;;;6.05;1.80;;;;;;;19.28;47.83;101129.53;10412681;28;20506;-79
2022/07/07 16:24:41;;;;;;;6.60;1.63;;;;;;;18.70;47.44;101141.91;10390160;28;20060;-78
2022/07/07 16:29:44;;;;;;;6.70;2.65;;;;;;;18.38;48.19;101150.72;10390776;28;20072;-79
2022/07/07 16:34:47;;;;;;;8.82;2.25;;;;;;;18.21;48.20;101157.84;10419669;28;20049;-77
2022/07/07 16:39:52;;;;;;;6.53;1.98;;;;;;;17.81;48.92;101167.25;10409360;28;20043;-76
2022/07/07 16:44:55;;;;;;;11.15;1.63;;;;;;;17.43;49.91;101171.91;10410757;28;20038;-77
2022/07/07 16:49:58;;;;;;;6.97;2.00;;;;;;;17.61;49.64;101177.41;10389878;28;20057;-78
2022/07/07 16:55:03;;;;;;;5.68;1.33;;;;;;;17.43;50.41;101177.34;10399885;28;20048;-78
2022/07/07 17:00:08;;;;;;;7.97;1.80;;;;;;;17.36;50.23;101185.25;10395155;28;20102;-79
2022/07/07 17:05:10;;;;;;;5.30;1.50;;;;;;;16.81;50.99;101190.50;10392625;28;20049;-78
2022/07/07 17:10:15;;;;;;;7.45;1.48;;;;;;;16.35;52.14;101194.84;10397417;28;20056;-78
2022/07/07 17:15:18;;;;;;;12.10;1.67;;;;;;;16.95;51.77;101200.03;10389760;28;20423;-78
2022/07/07 17:20:21;;;;;;;11.80;1.27;;;;;;;16.46;52.32;101201.97;10394889;28;20929;-78
2022/07/07 17:25:27;;;;;;;8.32;1.60;;;;;;;16.30;52.75;101210.66;10400152;28;20049;-80
2022/07/07 17:30:31;;;;;;;6.32;1.80;;;;;;;16.75;52.08;101210.91;10383363;28;20044;-79
2022/07/07 17:35:34;;;;;;;9.68;1.77;;;;;;;16.53;52.66;101222.94;10394640;28;20045;-79
2022/07/07 17:40:41;;;;;;;10.65;1.65;;;;;;;16.22;53.33;101218.63;10405359;28;20106;-79
2022/07/07 17:45:44;;;;;;;5.97;1.38;;;;;;;16.64;52.45;101231.94;10393351;28;20049;-80
2022/07/07 17:50:47;;;;;;;9.73;1.50;;;;;;;16.59;53.03;101222.38;10395732;28;20088;-77
2022/07/07 17:55:52;;;;;;;8.68;1.63;;;;;;;16.51;53.80;101235.81;10402849;28;20049;-78
2022/07/07 18:00:55;;;;;;;4.07;1.20;;;;;;;16.64;53.39;101232.78;10391171;28;20044;-79
2022/07/07 18:05:58;;;;;;;9.63;1.85;;;;;;;16.74;53.56;101236.34;10395286;28;20052;-78
2022/07/07 18:11:08;;;;;;;4.68;2.08;;;;;;;16.28;53.48;101237.91;10393720;28;20097;-78
2022/07/07 18:16:11;;;;;;;7.28;1.40;;;;;;;16.02;54.22;101253.81;10386684;28;20056;-79
2022/07/07 18:21:14;;;;;;;8.73;1.25;;;;;;;16.01;53.83;101254.78;10404417;28;20044;-78
2022/07/07 18:26:18;;;;;;;4.93;1.15;;;;;;;16.31;53.77;101263.88;10417583;28;20063;-77
2022/07/07 18:31:21;;;;;;;7.18;1.15;;;;;;;15.41;55.68;101278.22;10402219;28;20446;-77
2022/07/07 18:36:24;;;;;;;11.32;2.00;;;;;;;15.89;54.88;101269.47;10403658;28;20053;-79
2022/07/07 18:41:29;;;;;;;8.63;1.65;;;;;;;15.41;55.68;101283.63;10390199;28;20049;-79
2022/07/07 18:46:32;;;;;;;4.45;1.38;;;;;;;15.95;55.32;101287.03;10396710;28;20418;-78
2022/07/07 18:51:35;;;;;;;11.88;1.95;;;;;;;15.80;55.96;101287.41;10389792;28;20051;-78
2022/07/07 18:56:40;;;;;;;9.65;1.67;;;;;;;15.67;56.52;101301.16;10409479;28;20045;-78
2022/07/07 19:01:43;;;;;;;8.70;1.52;;;;;;;15.81;56.10;101308.06;10404515;28;20103;-78
2022/07/07 19:06:46;;;;;;;9.27;1.60;;;;;;;15.34;57.48;101323.06;10402899;28;20053;-79
2022/07/07 19:11:51;;;;;;;7.15;1.30;;;;;;;15.52;57.03;101336.84;10406156;28;20487;-78
2022/07/07 19:16:54;;;;;;;8.35;1.67;;;;;;;15.19;57.90;101341.44;10399297;28;20042;-78
2022/07/07 19:21:57;;;;;;;7.68;1.50;;;;;;;14.98;58.78;101341.44;10401174;28;20056;-78
2022/07/07 19:27:04;;;;;;;5.20;1.38;;;;;;;14.87;59.00;101347.75;10390714;28;20159;-77
2022/07/07 19:32:07;;;;;;;9.98;1.60;;;;;;;15.11;58.18;101349.38;10400836;28;20049;-78
2022/07/07 19:37:10;;;;;;;6.25;1.70;;;;;;;14.96;58.55;101362.34;10411933;28;20055;-77
2022/07/07 19:42:15;;;;;;;9.30;2.33;;;;;;;15.21;58.40;101370.09;10395767;28;20049;-79
2022/07/07 19:47:19;;;;;;;9.43;1.67;;;;;;;15.13;58.26;101378.00;10400216;28;20623;-78
2022/07/07 19:52:22;;;;;;;8.75;1.60;;;;;;;14.52;59.44;101402.91;10389896;28;20052;-77
2022/07/07 19:57:28;;;;;;;10.45;1.67;;;;;;;14.34;60.71;101397.16;10385194;28;20054;-78
2022/07/07 20:02:31;;;;;;;4.50;1.58;;;;;;;14.01;61.09;101416.91;10379978;28;20503;-79
2022/07/07 20:07:34;;;;;;;9.30;1.75;;;;;;;14.29;60.60;101407.47;10378875;28;20049;-77
2022/07/07 20:12:38;;;;;;;4.68;1.23;;;;;;;13.71;62.49;101412.97;10390970;28;20053;-78
2022/07/07 20:17:41;;;;;;;10.75;1.77;;;;;;;14.40;60.88;101424.69;10407564;28;20053;-77
2022/07/07 20:22:44;;;;;;;11.32;2.65;;;;;;;14.78;59.88;101427.84;10403469;28;20053;-79
2022/07/07 20:27:49;;;;;;;6.63;2.08;;;;;;;14.63;60.31;101428.22;10402791;28;20053;-79
2022/07/07 20:32:52;;;;;;;8.43;1.90;;;;;;;14.53;60.66;101433.50;10412269;28;21184;-78
2022/07/07 20:37:55;;;;;;;8.10;1.75;;;;;;;13.91;62.59;101433.00;10386194;28;20045;-78
2022/07/07 20:42:59;;;;;;;11.43;2.45;;;;;;;13.81;63.18;101440.09;10393292;28;20130;-78
2022/07/07 20:48:02;;;;;;;7.72;1.83;;;;;;;14.00;63.19;101444.06;10407624;28;20045;-79
2022/07/07 20:53:25;;;;;;;;;;;;;;;14.21;62.46;101450.47;10398989;28;20149;-79
2022/07/07 20:58:32;;;;;;;;;;;;;;;13.75;64.08;101467.59;10390633;28;19928;-79
2022/07/07 21:03:36;;;;;;;10.00;2.35;;;;;;;14.48;61.97;101469.06;10393078;28;19925;-78
2022/07/07 21:08:40;;;;;;;13.30;1.98;;;;;;;14.40;62.28;101473.34;10385364;28;20082;-78
2022/07/07 21:13:45;;;;;;;10.35;1.95;;;;;;;14.49;61.69;101478.03;10396927;28;20044;-77
2022/07/07 21:18:47;;;;;;;8.77;1.90;;;;;;;14.38;62.42;101487.84;10398271;28;20060;-79
2022/07/07 21:23:51;;;;;;;12.73;2.40;;;;;;;14.75;61.13;101486.72;10392275;28;20130;-78
2022/07/07 21:28:55;;;;;;;9.65;2.17;;;;;;;14.05;62.65;101487.78;10408204;28;20048;-79
2022/07/07 21:33:59;;;;;;;7.65;1.83;;;;;;;14.36;62.29;101500.56;10412790;28;20055;-79
2022/07/07 21:39:02;;;;;;;12.93;2.13;;;;;;;14.04;63.56;101503.13;10397687;28;20057;-79
2022/07/07 21:44:08;;;;;;;11.95;2.03;;;;;;;14.04;63.95;101532.88;10395062;28;20083;-78
2022/07/07 21:49:11;;;;;;;10.18;2.28;;;;;;;13.67;64.93;101526.72;10391226;28;20060;-79
2022/07/07 21:54:14;;;;;;;13.80;2.20;;;;;;;13.78;64.71;101531.31;10403478;28;20060;-78
2022/07/07 21:59:19;;;;;;;10.75;2.55;;;;;;;13.60;65.32;101529.03;10383605;28;20053;-78
2022/07/07 22:09:44;;;;;;;10.93;2.10;;;;;;;13.92;64.29;101542.75;10383624;28;20045;-81
2022/07/07 22:14:50;;;;;;;9.70;2.33;;;;;;;13.67;65.27;101549.16;10386534;28;20041;-80
2022/07/07 22:19:53;;;;;;;13.07;2.60;;;;;;;14.11;63.54;101541.34;10404607;28;20048;-81
2022/07/07 22:24:57;;;;;;;13.07;3.08;;;;;;;13.98;63.91;101551.38;10407767;28;20143;-81
2022/07/07 22:30:01;;;;;;;8.20;1.98;;;;;;;13.34;66.11;101557.94;10416211;28;20135;-80
2022/07/07 22:35:05;;;;;;;13.43;2.88;;;;;;;14.13;63.69;101552.91;10400229;28;20045;-80
2022/07/07 22:40:09;;;;;;;11.55;2.50;;;;;;;13.70;64.16;101550.78;10401886;28;20045;-79
2022/07/07 22:45:13;;;;;;;9.60;2.28;;;;;;;14.27;63.02;101559.94;10409479;28;21240;-80
2022/07/07 22:50:16;;;;;;;14.13;2.63;;;;;;;14.21;63.32;101571.22;10400279;28;20049;-80
2022/07/07 22:55:19;;;;;;;10.93;2.47;;;;;;;14.24;62.99;101579.94;10404503;28;20049;-81
2022/07/07 23:00:24;;;;;;;11.45;2.03;;;;;;;13.24;65.59;101575.78;10413116;28;20041;-79
2022/07/07 23:05:27;;;;;;;13.45;2.80;;;;;;;13.96;64.03;101581.22;10405601;28;20049;-81
2022/07/07 23:10:30;;;;;;;8.52;1.95;;;;;;;13.53;64.82;101586.28;10412722;28;20521;-81
2022/07/07 23:15:35;;;;;;;8.50;2.03;;;;;;;14.01;63.64;101597.91;10407616;28;20060;-80
2022/07/07 23:20:39;;;;;;;7.95;1.98;;;;;;;13.83;64.48;101594.78;10401036;28;20049;-80
2022/07/07 23:25:42;;;;;;;10.95;2.60;;;;;;;13.79;64.77;101603.22;10412886;28;20061;-80
2022/07/07 23:30:46;;;;;;;7.97;2.20;;;;;;;13.88;64.63;101611.50;10404137;28;20053;-81
2022/07/07 23:35:49;;;;;;;12.43;2.47;;;;;;;13.96;64.56;101615.44;10401548;28;20057;-79
2022/07/07 23:40:52;;;;;;;9.40;2.85;;;;;;;14.04;64.16;101613.91;10405185;28;20049;-80